sensor_id;sensor_type;location;lat;lon;timestamp;temperature;humidity
15156;DHT22;7678;50.058;8.306;2023-08-24T00:02:09;19.50;95.60
15156;DHT22;7678;50.058;8.306;2023-08-24T00:04:38;19.60;96.20
15156;DHT22;7678;50.058;8.306;2023-08-24T00:07:06;19.50;96.10
15156;DHT22;7678;50.058;8.306;2023-08-24T00:09:34;19.60;95.90
15156;DHT22;7678;50.058;8.306;2023-08-24T00:12:03;19.80;95.80
15156;DHT22;7678;50.058;8.306;2023-08-24T00:14:32;19.70;95.20
15156;DHT22;7678;50.058;8.306;2023-08-24T00:17:04;19.60;96.00
15156;DHT22;7678;50.058;8.306;2023-08-24T00:19:32;19.60;96.00
15156;DHT22;7678;50.058;8.306;2023-08-24T00:22:07;19.50;95.80
15156;DHT22;7678;50.058;8.306;2023-08-24T00:24:37;19.50;95.90
15156;DHT22;7678;50.058;8.306;2023-08-24T00:27:05;19.50;96.40
15156;DHT22;7678;50.058;8.306;2023-08-24T00:29:35;19.30;96.60
15156;DHT22;7678;50.058;8.306;2023-08-24T00:32:04;19.30;97.40
15156;DHT22;7678;50.058;8.306;2023-08-24T00:34:34;19.20;97.50
15156;DHT22;7678;50.058;8.306;2023-08-24T00:37:02;19.20;97.70
15156;DHT22;7678;50.058;8.306;2023-08-24T00:39:34;19.10;97.90
15156;DHT22;7678;50.058;8.306;2023-08-24T00:42:05;19.10;98.00
15156;DHT22;7678;50.058;8.306;2023-08-24T00:44:34;19.20;98.00
15156;DHT22;7678;50.058;8.306;2023-08-24T00:47:03;19.20;98.10
15156;DHT22;7678;50.058;8.306;2023-08-24T00:49:36;19.30;98.20
15156;DHT22;7678;50.058;8.306;2023-08-24T00:52:06;19.30;98.40
15156;DHT22;7678;50.058;8.306;2023-08-24T00:54:38;19.30;98.40
15156;DHT22;7678;50.058;8.306;2023-08-24T00:57:10;19.30;98.90
15156;DHT22;7678;50.058;8.306;2023-08-24T00:59:40;19.40;98.50
15156;DHT22;7678;50.058;8.306;2023-08-24T01:02:10;19.50;98.20
15156;DHT22;7678;50.058;8.306;2023-08-24T01:04:42;19.50;98.90
15156;DHT22;7678;50.058;8.306;2023-08-24T01:07:12;19.50;98.30
15156;DHT22;7678;50.058;8.306;2023-08-24T01:09:41;19.40;98.80
15156;DHT22;7678;50.058;8.306;2023-08-24T01:12:18;19.30;99.70
15156;DHT22;7678;50.058;8.306;2023-08-24T01:14:56;19.30;99.30
15156;DHT22;7678;50.058;8.306;2023-08-24T01:17:27;19.40;99.50
15156;DHT22;7678;50.058;8.306;2023-08-24T01:20:01;19.50;99.50
15156;DHT22;7678;50.058;8.306;2023-08-24T01:22:41;19.40;99.20
15156;DHT22;7678;50.058;8.306;2023-08-24T01:25:16;19.30;99.90
15156;DHT22;7678;50.058;8.306;2023-08-24T01:27:48;19.10;99.90
15156;DHT22;7678;50.058;8.306;2023-08-24T01:30:18;19.10;99.90
15156;DHT22;7678;50.058;8.306;2023-08-24T01:32:51;19.10;99.90
15156;DHT22;7678;50.058;8.306;2023-08-24T01:35:23;19.50;99.20
15156;DHT22;7678;50.058;8.306;2023-08-24T01:37:59;19.50;99.80
15156;DHT22;7678;50.058;8.306;2023-08-24T01:40:48;19.30;99.90
15156;DHT22;7678;50.058;8.306;2023-08-24T01:43:19;19.30;99.90
15156;DHT22;7678;50.058;8.306;2023-08-24T01:46:07;19.20;99.90
15156;DHT22;7678;50.058;8.306;2023-08-24T01:48:38;19.20;99.90
15156;DHT22;7678;50.058;8.306;2023-08-24T01:51:11;19.30;99.60
15156;DHT22;7678;50.058;8.306;2023-08-24T01:53:45;19.30;99.90
15156;DHT22;7678;50.058;8.306;2023-08-24T01:56:17;19.20;99.90
15156;DHT22;7678;50.058;8.306;2023-08-24T01:58:47;19.30;99.80
15156;DHT22;7678;50.058;8.306;2023-08-24T02:01:15;19.40;99.40
15156;DHT22;7678;50.058;8.306;2023-08-24T02:03:43;19.30;99.70
15156;DHT22;7678;50.058;8.306;2023-08-24T02:06:11;19.20;99.80
15156;DHT22;7678;50.058;8.306;2023-08-24T02:08:39;19.30;99.90
15156;DHT22;7678;50.058;8.306;2023-08-24T02:11:09;19.30;99.90
15156;DHT22;7678;50.058;8.306;2023-08-24T02:13:40;19.40;99.80
15156;DHT22;7678;50.058;8.306;2023-08-24T02:16:17;19.30;99.90
15156;DHT22;7678;50.058;8.306;2023-08-24T02:18:48;19.40;99.90
15156;DHT22;7678;50.058;8.306;2023-08-24T02:21:18;19.40;99.90
15156;DHT22;7678;50.058;8.306;2023-08-24T02:23:52;19.50;99.70
15156;DHT22;7678;50.058;8.306;2023-08-24T02:26:20;19.60;99.50
15156;DHT22;7678;50.058;8.306;2023-08-24T02:28:50;19.70;98.70
15156;DHT22;7678;50.058;8.306;2023-08-24T02:31:19;19.80;98.50
15156;DHT22;7678;50.058;8.306;2023-08-24T02:33:51;19.90;98.40
15156;DHT22;7678;50.058;8.306;2023-08-24T02:36:19;19.90;98.10
15156;DHT22;7678;50.058;8.306;2023-08-24T02:38:50;19.90;97.90
15156;DHT22;7678;50.058;8.306;2023-08-24T02:41:19;19.90;98.40
15156;DHT22;7678;50.058;8.306;2023-08-24T02:43:47;19.90;98.20
15156;DHT22;7678;50.058;8.306;2023-08-24T02:46:15;19.70;98.60
15156;DHT22;7678;50.058;8.306;2023-08-24T02:48:46;19.70;98.80
15156;DHT22;7678;50.058;8.306;2023-08-24T02:51:14;19.80;98.60
15156;DHT22;7678;50.058;8.306;2023-08-24T02:53:44;19.80;98.60
15156;DHT22;7678;50.058;8.306;2023-08-24T02:56:14;20.00;99.30
15156;DHT22;7678;50.058;8.306;2023-08-24T02:58:47;19.90;99.50
15156;DHT22;7678;50.058;8.306;2023-08-24T03:01:15;19.90;99.70
15156;DHT22;7678;50.058;8.306;2023-08-24T03:03:43;19.90;99.90
15156;DHT22;7678;50.058;8.306;2023-08-24T03:06:13;19.80;99.90
15156;DHT22;7678;50.058;8.306;2023-08-24T03:08:41;19.60;99.90
15156;DHT22;7678;50.058;8.306;2023-08-24T03:11:12;19.60;99.90
15156;DHT22;7678;50.058;8.306;2023-08-24T03:13:41;19.60;99.90
15156;DHT22;7678;50.058;8.306;2023-08-24T03:16:10;19.70;99.90
15156;DHT22;7678;50.058;8.306;2023-08-24T03:18:38;19.80;99.90
15156;DHT22;7678;50.058;8.306;2023-08-24T03:21:06;19.70;99.90
15156;DHT22;7678;50.058;8.306;2023-08-24T03:23:36;19.70;99.90
15156;DHT22;7678;50.058;8.306;2023-08-24T03:26:04;19.80;99.90
15156;DHT22;7678;50.058;8.306;2023-08-24T03:28:34;19.60;99.90
15156;DHT22;7678;50.058;8.306;2023-08-24T03:31:06;19.40;99.90
15156;DHT22;7678;50.058;8.306;2023-08-24T03:33:38;19.30;99.90
15156;DHT22;7678;50.058;8.306;2023-08-24T03:36:08;19.40;99.90
15156;DHT22;7678;50.058;8.306;2023-08-24T03:38:37;19.50;99.90
15156;DHT22;7678;50.058;8.306;2023-08-24T03:41:07;19.40;99.90
15156;DHT22;7678;50.058;8.306;2023-08-24T03:43:38;19.30;99.90
15156;DHT22;7678;50.058;8.306;2023-08-24T03:46:06;19.40;99.90
15156;DHT22;7678;50.058;8.306;2023-08-24T03:48:34;19.50;99.90
15156;DHT22;7678;50.058;8.306;2023-08-24T03:51:02;19.60;99.90
15156;DHT22;7678;50.058;8.306;2023-08-24T03:53:34;19.50;99.90
15156;DHT22;7678;50.058;8.306;2023-08-24T03:56:04;19.40;99.90
15156;DHT22;7678;50.058;8.306;2023-08-24T03:58:32;19.20;99.90
15156;DHT22;7678;50.058;8.306;2023-08-24T04:01:03;19.20;99.90
15156;DHT22;7678;50.058;8.306;2023-08-24T04:03:33;19.30;99.90
15156;DHT22;7678;50.058;8.306;2023-08-24T04:06:02;19.60;99.90
15156;DHT22;7678;50.058;8.306;2023-08-24T04:08:30;19.70;99.90
15156;DHT22;7678;50.058;8.306;2023-08-24T04:10:59;19.70;99.90
15156;DHT22;7678;50.058;8.306;2023-08-24T04:13:29;19.80;99.90
15156;DHT22;7678;50.058;8.306;2023-08-24T04:16:00;19.90;99.90
15156;DHT22;7678;50.058;8.306;2023-08-24T04:18:28;19.90;99.90
15156;DHT22;7678;50.058;8.306;2023-08-24T04:20:56;20.00;99.90
15156;DHT22;7678;50.058;8.306;2023-08-24T04:23:24;20.10;99.90
15156;DHT22;7678;50.058;8.306;2023-08-24T04:25:53;20.10;99.90
15156;DHT22;7678;50.058;8.306;2023-08-24T04:28:23;20.10;99.90
15156;DHT22;7678;50.058;8.306;2023-08-24T04:30:54;20.10;99.90
15156;DHT22;7678;50.058;8.306;2023-08-24T04:33:23;20.10;99.90
15156;DHT22;7678;50.058;8.306;2023-08-24T04:35:51;20.20;99.90
15156;DHT22;7678;50.058;8.306;2023-08-24T04:38:21;20.20;99.90
15156;DHT22;7678;50.058;8.306;2023-08-24T04:40:52;20.20;99.90
15156;DHT22;7678;50.058;8.306;2023-08-24T04:43:21;20.30;99.90
15156;DHT22;7678;50.058;8.306;2023-08-24T04:45:50;20.30;99.90
15156;DHT22;7678;50.058;8.306;2023-08-24T04:48:21;20.40;99.90
15156;DHT22;7678;50.058;8.306;2023-08-24T04:50:50;20.50;99.90
15156;DHT22;7678;50.058;8.306;2023-08-24T04:53:20;20.50;99.90
15156;DHT22;7678;50.058;8.306;2023-08-24T04:55:50;20.40;99.90
15156;DHT22;7678;50.058;8.306;2023-08-24T04:58:20;20.30;99.90
15156;DHT22;7678;50.058;8.306;2023-08-24T05:00:51;20.30;99.90
15156;DHT22;7678;50.058;8.306;2023-08-24T05:03:26;20.30;99.90
15156;DHT22;7678;50.058;8.306;2023-08-24T05:05:54;20.30;99.90
15156;DHT22;7678;50.058;8.306;2023-08-24T05:08:22;20.20;99.90
15156;DHT22;7678;50.058;8.306;2023-08-24T05:10:53;20.10;99.90
15156;DHT22;7678;50.058;8.306;2023-08-24T05:13:23;20.10;99.90
15156;DHT22;7678;50.058;8.306;2023-08-24T05:15:53;20.10;99.90
15156;DHT22;7678;50.058;8.306;2023-08-24T05:18:21;20.10;99.90
15156;DHT22;7678;50.058;8.306;2023-08-24T05:20:50;20.20;99.90
15156;DHT22;7678;50.058;8.306;2023-08-24T05:23:18;20.20;99.90
15156;DHT22;7678;50.058;8.306;2023-08-24T05:25:50;20.30;99.90
15156;DHT22;7678;50.058;8.306;2023-08-24T05:28:18;20.30;99.90
15156;DHT22;7678;50.058;8.306;2023-08-24T05:30:48;20.30;99.90
15156;DHT22;7678;50.058;8.306;2023-08-24T05:33:16;20.20;99.90
15156;DHT22;7678;50.058;8.306;2023-08-24T05:35:44;20.20;99.90
15156;DHT22;7678;50.058;8.306;2023-08-24T05:38:14;20.20;99.90
15156;DHT22;7678;50.058;8.306;2023-08-24T05:40:46;20.30;99.90
15156;DHT22;7678;50.058;8.306;2023-08-24T05:43:15;20.40;99.90
15156;DHT22;7678;50.058;8.306;2023-08-24T05:45:43;20.30;99.90
15156;DHT22;7678;50.058;8.306;2023-08-24T05:48:12;20.30;99.90
15156;DHT22;7678;50.058;8.306;2023-08-24T05:50:46;20.40;99.90
15156;DHT22;7678;50.058;8.306;2023-08-24T05:53:15;20.40;99.90
15156;DHT22;7678;50.058;8.306;2023-08-24T05:55:46;20.50;99.90
15156;DHT22;7678;50.058;8.306;2023-08-24T05:58:14;20.40;99.90
15156;DHT22;7678;50.058;8.306;2023-08-24T06:00:42;20.40;99.90
15156;DHT22;7678;50.058;8.306;2023-08-24T06:03:11;20.30;99.90
15156;DHT22;7678;50.058;8.306;2023-08-24T06:05:40;20.20;99.90
15156;DHT22;7678;50.058;8.306;2023-08-24T06:08:08;20.30;99.90
15156;DHT22;7678;50.058;8.306;2023-08-24T06:10:41;20.20;99.90
15156;DHT22;7678;50.058;8.306;2023-08-24T06:13:09;20.30;99.90
15156;DHT22;7678;50.058;8.306;2023-08-24T06:15:37;20.40;99.90
15156;DHT22;7678;50.058;8.306;2023-08-24T06:18:06;20.40;99.90
15156;DHT22;7678;50.058;8.306;2023-08-24T06:20:34;20.30;99.90
15156;DHT22;7678;50.058;8.306;2023-08-24T06:23:04;20.20;99.90
15156;DHT22;7678;50.058;8.306;2023-08-24T06:25:36;20.20;99.90
15156;DHT22;7678;50.058;8.306;2023-08-24T06:28:07;20.20;99.90
15156;DHT22;7678;50.058;8.306;2023-08-24T06:30:37;20.20;99.90
15156;DHT22;7678;50.058;8.306;2023-08-24T06:33:06;20.30;99.90
15156;DHT22;7678;50.058;8.306;2023-08-24T06:35:35;20.10;99.90
15156;DHT22;7678;50.058;8.306;2023-08-24T06:38:03;20.00;99.90
15156;DHT22;7678;50.058;8.306;2023-08-24T06:40:32;20.10;99.90
15156;DHT22;7678;50.058;8.306;2023-08-24T06:43:02;20.00;99.90
15156;DHT22;7678;50.058;8.306;2023-08-24T06:45:31;19.90;99.90
15156;DHT22;7678;50.058;8.306;2023-08-24T06:47:58;19.90;99.90
15156;DHT22;7678;50.058;8.306;2023-08-24T06:50:26;20.00;99.90
15156;DHT22;7678;50.058;8.306;2023-08-24T06:52:54;19.90;99.90
15156;DHT22;7678;50.058;8.306;2023-08-24T06:55:22;19.90;99.90
15156;DHT22;7678;50.058;8.306;2023-08-24T06:57:54;20.10;99.90
15156;DHT22;7678;50.058;8.306;2023-08-24T07:00:23;20.10;99.90
15156;DHT22;7678;50.058;8.306;2023-08-24T07:02:53;20.00;99.90
15156;DHT22;7678;50.058;8.306;2023-08-24T07:05:21;19.90;99.90
15156;DHT22;7678;50.058;8.306;2023-08-24T07:07:55;20.10;99.90
15156;DHT22;7678;50.058;8.306;2023-08-24T07:10:25;20.20;99.90
15156;DHT22;7678;50.058;8.306;2023-08-24T07:12:53;20.20;99.90
15156;DHT22;7678;50.058;8.306;2023-08-24T07:15:22;20.30;99.90
15156;DHT22;7678;50.058;8.306;2023-08-24T07:17:51;20.30;99.90
15156;DHT22;7678;50.058;8.306;2023-08-24T07:20:24;20.20;99.90
15156;DHT22;7678;50.058;8.306;2023-08-24T07:22:52;20.20;99.90
15156;DHT22;7678;50.058;8.306;2023-08-24T07:25:26;20.40;99.90
15156;DHT22;7678;50.058;8.306;2023-08-24T07:27:54;20.60;99.90
15156;DHT22;7678;50.058;8.306;2023-08-24T07:30:26;20.60;99.90
15156;DHT22;7678;50.058;8.306;2023-08-24T07:33:00;20.70;99.90
15156;DHT22;7678;50.058;8.306;2023-08-24T07:35:30;20.60;99.90
15156;DHT22;7678;50.058;8.306;2023-08-24T07:37:58;20.70;99.90
15156;DHT22;7678;50.058;8.306;2023-08-24T07:40:26;20.70;99.90
15156;DHT22;7678;50.058;8.306;2023-08-24T07:42:54;20.60;99.90
15156;DHT22;7678;50.058;8.306;2023-08-24T07:45:24;20.70;99.90
15156;DHT22;7678;50.058;8.306;2023-08-24T07:47:54;20.50;99.90
15156;DHT22;7678;50.058;8.306;2023-08-24T07:50:22;20.50;99.90
15156;DHT22;7678;50.058;8.306;2023-08-24T07:52:50;20.50;99.90
15156;DHT22;7678;50.058;8.306;2023-08-24T07:55:23;20.50;99.90
15156;DHT22;7678;50.058;8.306;2023-08-24T07:57:51;20.50;99.90
15156;DHT22;7678;50.058;8.306;2023-08-24T08:00:20;20.60;99.90
15156;DHT22;7678;50.058;8.306;2023-08-24T08:02:49;20.70;99.90
15156;DHT22;7678;50.058;8.306;2023-08-24T08:05:21;20.90;99.90
15156;DHT22;7678;50.058;8.306;2023-08-24T08:07:50;20.80;99.90
15156;DHT22;7678;50.058;8.306;2023-08-24T08:10:19;20.80;99.90
15156;DHT22;7678;50.058;8.306;2023-08-24T08:12:48;20.90;99.90
15156;DHT22;7678;50.058;8.306;2023-08-24T08:15:16;20.90;99.90
15156;DHT22;7678;50.058;8.306;2023-08-24T08:17:44;21.10;99.90
15156;DHT22;7678;50.058;8.306;2023-08-24T08:20:14;21.20;99.90
15156;DHT22;7678;50.058;8.306;2023-08-24T08:22:44;21.10;99.90
15156;DHT22;7678;50.058;8.306;2023-08-24T08:25:12;21.10;99.90
15156;DHT22;7678;50.058;8.306;2023-08-24T08:27:40;21.20;99.90
15156;DHT22;7678;50.058;8.306;2023-08-24T08:30:08;21.30;99.90
15156;DHT22;7678;50.058;8.306;2023-08-24T08:32:37;21.50;99.90
15156;DHT22;7678;50.058;8.306;2023-08-24T08:35:06;21.40;99.90
15156;DHT22;7678;50.058;8.306;2023-08-24T08:37:34;21.40;99.90
15156;DHT22;7678;50.058;8.306;2023-08-24T08:40:05;21.40;99.90
15156;DHT22;7678;50.058;8.306;2023-08-24T08:42:34;21.40;99.90
15156;DHT22;7678;50.058;8.306;2023-08-24T08:45:08;21.50;99.90
15156;DHT22;7678;50.058;8.306;2023-08-24T08:47:36;21.40;99.90
15156;DHT22;7678;50.058;8.306;2023-08-24T08:50:05;21.60;99.90
15156;DHT22;7678;50.058;8.306;2023-08-24T08:52:37;21.60;99.90
15156;DHT22;7678;50.058;8.306;2023-08-24T08:55:07;21.70;99.90
15156;DHT22;7678;50.058;8.306;2023-08-24T08:57:38;21.80;99.90
15156;DHT22;7678;50.058;8.306;2023-08-24T09:00:10;21.90;99.90
15156;DHT22;7678;50.058;8.306;2023-08-24T09:02:42;22.10;99.90
15156;DHT22;7678;50.058;8.306;2023-08-24T09:05:12;22.30;99.90
15156;DHT22;7678;50.058;8.306;2023-08-24T09:07:40;22.50;99.90
15156;DHT22;7678;50.058;8.306;2023-08-24T09:10:10;22.50;99.90
15156;DHT22;7678;50.058;8.306;2023-08-24T09:12:40;22.50;99.90
15156;DHT22;7678;50.058;8.306;2023-08-24T09:15:09;22.60;99.90
15156;DHT22;7678;50.058;8.306;2023-08-24T09:17:42;22.70;99.90
15156;DHT22;7678;50.058;8.306;2023-08-24T09:20:11;22.90;99.90
15156;DHT22;7678;50.058;8.306;2023-08-24T09:22:42;23.20;99.90
15156;DHT22;7678;50.058;8.306;2023-08-24T09:25:12;23.30;99.90
15156;DHT22;7678;50.058;8.306;2023-08-24T09:27:40;23.40;99.90
15156;DHT22;7678;50.058;8.306;2023-08-24T09:30:10;23.60;99.90
15156;DHT22;7678;50.058;8.306;2023-08-24T09:32:40;23.60;99.00
15156;DHT22;7678;50.058;8.306;2023-08-24T09:35:09;23.70;99.30
15156;DHT22;7678;50.058;8.306;2023-08-24T09:37:38;23.80;98.50
15156;DHT22;7678;50.058;8.306;2023-08-24T09:40:09;23.80;99.20
15156;DHT22;7678;50.058;8.306;2023-08-24T09:42:42;23.90;99.30
15156;DHT22;7678;50.058;8.306;2023-08-24T09:45:12;24.00;98.30
15156;DHT22;7678;50.058;8.306;2023-08-24T09:47:45;24.10;99.10
15156;DHT22;7678;50.058;8.306;2023-08-24T09:50:14;24.20;95.30
15156;DHT22;7678;50.058;8.306;2023-08-24T09:52:42;24.30;96.00
15156;DHT22;7678;50.058;8.306;2023-08-24T09:55:12;24.60;95.10
15156;DHT22;7678;50.058;8.306;2023-08-24T09:57:46;24.70;94.60
15156;DHT22;7678;50.058;8.306;2023-08-24T10:00:14;24.80;93.30
15156;DHT22;7678;50.058;8.306;2023-08-24T10:02:50;24.90;93.20
15156;DHT22;7678;50.058;8.306;2023-08-24T10:05:23;24.90;92.90
15156;DHT22;7678;50.058;8.306;2023-08-24T10:07:56;24.80;91.70
15156;DHT22;7678;50.058;8.306;2023-08-24T10:10:28;24.90;92.20
15156;DHT22;7678;50.058;8.306;2023-08-24T10:13:04;25.20;91.60
15156;DHT22;7678;50.058;8.306;2023-08-24T10:15:36;25.40;90.60
15156;DHT22;7678;50.058;8.306;2023-08-24T10:18:15;25.80;90.30
15156;DHT22;7678;50.058;8.306;2023-08-24T10:20:44;25.80;87.80
15156;DHT22;7678;50.058;8.306;2023-08-24T10:23:15;26.00;89.00
15156;DHT22;7678;50.058;8.306;2023-08-24T10:25:46;25.90;87.80
15156;DHT22;7678;50.058;8.306;2023-08-24T10:28:18;26.10;86.20
15156;DHT22;7678;50.058;8.306;2023-08-24T10:30:48;26.50;89.40
15156;DHT22;7678;50.058;8.306;2023-08-24T10:33:17;26.40;85.60
15156;DHT22;7678;50.058;8.306;2023-08-24T10:35:47;26.50;83.00
15156;DHT22;7678;50.058;8.306;2023-08-24T10:38:25;26.30;85.30
15156;DHT22;7678;50.058;8.306;2023-08-24T10:40:54;26.20;84.10
15156;DHT22;7678;50.058;8.306;2023-08-24T10:43:24;26.50;87.90
15156;DHT22;7678;50.058;8.306;2023-08-24T10:45:56;26.40;85.50
15156;DHT22;7678;50.058;8.306;2023-08-24T10:48:25;26.70;82.50
15156;DHT22;7678;50.058;8.306;2023-08-24T10:51:16;26.80;83.30
15156;DHT22;7678;50.058;8.306;2023-08-24T10:53:48;26.80;82.50
15156;DHT22;7678;50.058;8.306;2023-08-24T10:56:20;26.90;81.40
15156;DHT22;7678;50.058;8.306;2023-08-24T10:59:11;26.90;81.00
15156;DHT22;7678;50.058;8.306;2023-08-24T11:01:40;26.90;83.60
15156;DHT22;7678;50.058;8.306;2023-08-24T11:04:10;26.90;82.80
15156;DHT22;7678;50.058;8.306;2023-08-24T11:06:51;27.00;80.50
15156;DHT22;7678;50.058;8.306;2023-08-24T11:09:20;27.20;82.40
15156;DHT22;7678;50.058;8.306;2023-08-24T11:11:59;27.60;79.20
15156;DHT22;7678;50.058;8.306;2023-08-24T11:14:30;27.50;77.20
15156;DHT22;7678;50.058;8.306;2023-08-24T11:17:01;27.40;77.70
15156;DHT22;7678;50.058;8.306;2023-08-24T11:19:48;27.60;79.50
15156;DHT22;7678;50.058;8.306;2023-08-24T11:22:17;27.50;77.10
15156;DHT22;7678;50.058;8.306;2023-08-24T11:24:46;27.30;77.20
15156;DHT22;7678;50.058;8.306;2023-08-24T11:27:14;27.20;77.10
15156;DHT22;7678;50.058;8.306;2023-08-24T11:29:44;27.50;77.20
15156;DHT22;7678;50.058;8.306;2023-08-24T11:32:12;28.00;76.50
15156;DHT22;7678;50.058;8.306;2023-08-24T11:34:42;28.00;74.70
15156;DHT22;7678;50.058;8.306;2023-08-24T11:37:18;27.90;75.90
15156;DHT22;7678;50.058;8.306;2023-08-24T11:39:46;27.70;77.80
15156;DHT22;7678;50.058;8.306;2023-08-24T11:42:15;28.00;78.30
15156;DHT22;7678;50.058;8.306;2023-08-24T11:44:50;27.70;78.50
15156;DHT22;7678;50.058;8.306;2023-08-24T11:47:20;27.80;76.30
15156;DHT22;7678;50.058;8.306;2023-08-24T11:49:50;27.80;75.10
15156;DHT22;7678;50.058;8.306;2023-08-24T11:52:18;27.60;76.70
15156;DHT22;7678;50.058;8.306;2023-08-24T11:54:47;27.60;75.70
15156;DHT22;7678;50.058;8.306;2023-08-24T11:57:17;27.50;76.20
15156;DHT22;7678;50.058;8.306;2023-08-24T11:59:45;27.60;76.80
15156;DHT22;7678;50.058;8.306;2023-08-24T12:02:14;27.50;74.80
15156;DHT22;7678;50.058;8.306;2023-08-24T12:04:44;27.60;77.30
15156;DHT22;7678;50.058;8.306;2023-08-24T12:07:12;27.70;75.00
15156;DHT22;7678;50.058;8.306;2023-08-24T12:09:41;27.90;78.40
15156;DHT22;7678;50.058;8.306;2023-08-24T12:12:12;28.10;75.20
15156;DHT22;7678;50.058;8.306;2023-08-24T12:14:41;28.10;72.90
15156;DHT22;7678;50.058;8.306;2023-08-24T12:17:09;28.00;75.10
15156;DHT22;7678;50.058;8.306;2023-08-24T12:19:41;28.00;78.00
15156;DHT22;7678;50.058;8.306;2023-08-24T12:22:13;27.90;75.60
15156;DHT22;7678;50.058;8.306;2023-08-24T12:24:43;27.90;76.60
15156;DHT22;7678;50.058;8.306;2023-08-24T12:27:17;28.00;74.60
15156;DHT22;7678;50.058;8.306;2023-08-24T12:29:46;27.80;75.90
15156;DHT22;7678;50.058;8.306;2023-08-24T12:32:15;27.70;75.70
15156;DHT22;7678;50.058;8.306;2023-08-24T12:34:48;27.80;77.80
15156;DHT22;7678;50.058;8.306;2023-08-24T12:37:18;27.80;78.00
15156;DHT22;7678;50.058;8.306;2023-08-24T12:39:46;28.00;78.20
15156;DHT22;7678;50.058;8.306;2023-08-24T12:42:15;28.00;76.70
15156;DHT22;7678;50.058;8.306;2023-08-24T12:44:43;28.00;74.90
15156;DHT22;7678;50.058;8.306;2023-08-24T12:47:11;28.20;77.30
15156;DHT22;7678;50.058;8.306;2023-08-24T12:49:40;28.20;76.30
15156;DHT22;7678;50.058;8.306;2023-08-24T12:52:09;28.30;73.60
15156;DHT22;7678;50.058;8.306;2023-08-24T12:54:38;28.10;73.00
15156;DHT22;7678;50.058;8.306;2023-08-24T12:57:06;27.90;74.90
15156;DHT22;7678;50.058;8.306;2023-08-24T12:59:35;27.80;75.90
15156;DHT22;7678;50.058;8.306;2023-08-24T13:02:03;28.00;74.70
15156;DHT22;7678;50.058;8.306;2023-08-24T13:04:31;28.00;74.30
15156;DHT22;7678;50.058;8.306;2023-08-24T13:07:00;27.90;74.90
15156;DHT22;7678;50.058;8.306;2023-08-24T13:09:29;27.80;76.70
15156;DHT22;7678;50.058;8.306;2023-08-24T13:11:58;27.90;74.30
15156;DHT22;7678;50.058;8.306;2023-08-24T13:14:26;27.60;75.40
15156;DHT22;7678;50.058;8.306;2023-08-24T13:16:55;27.50;76.50
15156;DHT22;7678;50.058;8.306;2023-08-24T13:19:23;27.30;76.10
15156;DHT22;7678;50.058;8.306;2023-08-24T13:21:51;27.20;77.60
15156;DHT22;7678;50.058;8.306;2023-08-24T13:24:19;27.40;76.80
15156;DHT22;7678;50.058;8.306;2023-08-24T13:26:49;27.50;78.50
15156;DHT22;7678;50.058;8.306;2023-08-24T13:29:17;27.40;78.20
15156;DHT22;7678;50.058;8.306;2023-08-24T13:31:45;27.30;78.30
15156;DHT22;7678;50.058;8.306;2023-08-24T13:34:13;27.40;79.30
15156;DHT22;7678;50.058;8.306;2023-08-24T13:36:41;27.50;79.20
15156;DHT22;7678;50.058;8.306;2023-08-24T13:39:09;27.50;78.30
15156;DHT22;7678;50.058;8.306;2023-08-24T13:41:37;27.40;77.90
15156;DHT22;7678;50.058;8.306;2023-08-24T13:44:07;27.30;77.50
15156;DHT22;7678;50.058;8.306;2023-08-24T13:46:35;27.20;77.50
15156;DHT22;7678;50.058;8.306;2023-08-24T13:49:03;27.20;79.70
15156;DHT22;7678;50.058;8.306;2023-08-24T13:51:31;27.30;80.60
15156;DHT22;7678;50.058;8.306;2023-08-24T13:53:59;27.40;79.30
15156;DHT22;7678;50.058;8.306;2023-08-24T13:56:27;27.40;78.50
15156;DHT22;7678;50.058;8.306;2023-08-24T13:58:55;27.20;78.60
15156;DHT22;7678;50.058;8.306;2023-08-24T14:01:25;27.10;77.90
15156;DHT22;7678;50.058;8.306;2023-08-24T14:03:53;26.90;77.60
15156;DHT22;7678;50.058;8.306;2023-08-24T14:06:21;26.80;79.00
15156;DHT22;7678;50.058;8.306;2023-08-24T14:08:49;26.90;78.50
15156;DHT22;7678;50.058;8.306;2023-08-24T14:11:17;27.30;79.70
15156;DHT22;7678;50.058;8.306;2023-08-24T14:13:47;27.40;78.60
15156;DHT22;7678;50.058;8.306;2023-08-24T14:16:16;27.40;80.20
15156;DHT22;7678;50.058;8.306;2023-08-24T14:18:46;27.30;81.80
15156;DHT22;7678;50.058;8.306;2023-08-24T14:21:15;27.30;81.80
15156;DHT22;7678;50.058;8.306;2023-08-24T14:23:54;27.40;81.10
15156;DHT22;7678;50.058;8.306;2023-08-24T14:26:22;27.20;81.20
15156;DHT22;7678;50.058;8.306;2023-08-24T14:28:51;27.30;81.50
15156;DHT22;7678;50.058;8.306;2023-08-24T14:31:21;27.30;81.10
15156;DHT22;7678;50.058;8.306;2023-08-24T14:33:51;27.20;82.30
15156;DHT22;7678;50.058;8.306;2023-08-24T14:36:20;27.10;82.10
15156;DHT22;7678;50.058;8.306;2023-08-24T14:38:49;27.00;83.50
15156;DHT22;7678;50.058;8.306;2023-08-24T14:41:18;26.90;82.30
15156;DHT22;7678;50.058;8.306;2023-08-24T14:43:47;26.90;83.40
15156;DHT22;7678;50.058;8.306;2023-08-24T14:46:18;26.80;80.90
15156;DHT22;7678;50.058;8.306;2023-08-24T14:48:48;26.80;78.80
15156;DHT22;7678;50.058;8.306;2023-08-24T14:51:18;26.80;79.30
15156;DHT22;7678;50.058;8.306;2023-08-24T14:53:48;26.70;79.10
15156;DHT22;7678;50.058;8.306;2023-08-24T14:56:16;26.80;81.40
15156;DHT22;7678;50.058;8.306;2023-08-24T14:58:45;26.70;81.10
15156;DHT22;7678;50.058;8.306;2023-08-24T15:01:14;26.80;83.00
15156;DHT22;7678;50.058;8.306;2023-08-24T15:03:42;26.70;84.80
15156;DHT22;7678;50.058;8.306;2023-08-24T15:06:10;26.80;86.30
15156;DHT22;7678;50.058;8.306;2023-08-24T15:08:40;26.70;83.30
15156;DHT22;7678;50.058;8.306;2023-08-24T15:11:09;26.60;81.90
15156;DHT22;7678;50.058;8.306;2023-08-24T15:13:40;26.60;82.90
15156;DHT22;7678;50.058;8.306;2023-08-24T15:16:11;26.60;82.60
15156;DHT22;7678;50.058;8.306;2023-08-24T15:18:42;26.60;82.70
15156;DHT22;7678;50.058;8.306;2023-08-24T15:21:10;26.60;82.00
15156;DHT22;7678;50.058;8.306;2023-08-24T15:23:43;26.50;84.30
15156;DHT22;7678;50.058;8.306;2023-08-24T15:26:11;26.50;85.30
15156;DHT22;7678;50.058;8.306;2023-08-24T15:29:07;26.40;86.60
15156;DHT22;7678;50.058;8.306;2023-08-24T15:31:36;26.40;87.40
15156;DHT22;7678;50.058;8.306;2023-08-24T15:34:04;26.20;88.80
15156;DHT22;7678;50.058;8.306;2023-08-24T15:36:32;26.10;89.40
15156;DHT22;7678;50.058;8.306;2023-08-24T15:39:02;25.80;90.10
15156;DHT22;7678;50.058;8.306;2023-08-24T15:41:32;25.70;90.80
15156;DHT22;7678;50.058;8.306;2023-08-24T15:44:00;25.70;90.60
15156;DHT22;7678;50.058;8.306;2023-08-24T15:46:29;25.70;90.30
15156;DHT22;7678;50.058;8.306;2023-08-24T15:49:04;25.70;90.10
15156;DHT22;7678;50.058;8.306;2023-08-24T15:51:32;25.70;90.10
15156;DHT22;7678;50.058;8.306;2023-08-24T15:54:03;25.80;90.50
15156;DHT22;7678;50.058;8.306;2023-08-24T15:56:31;25.60;90.60
15156;DHT22;7678;50.058;8.306;2023-08-24T15:58:59;25.60;90.20
15156;DHT22;7678;50.058;8.306;2023-08-24T16:01:27;25.50;89.90
15156;DHT22;7678;50.058;8.306;2023-08-24T16:03:55;25.50;88.10